sensor_id;sensor_type;location;lat;lon;timestamp;pressure;altitude;pressure_sealevel;temperature;humidity
73105;BME280;61296;50.526;30.792;2023-04-27T00:01:09;98745.63;;;8.05;100.00
73105;BME280;61296;50.526;30.792;2023-04-27T00:16:29;98602.03;;;6.77;100.00
73105;BME280;61296;50.526;30.792;2023-04-27T00:31:48;98644.41;;;6.64;100.00
73105;BME280;61296;50.526;30.792;2023-04-27T00:47:09;98711.72;;;7.06;100.00
73105;BME280;61296;50.526;30.792;2023-04-27T01:02:30;98719.22;;;6.82;100.00
73105;BME280;61296;50.526;30.792;2023-04-27T01:17:58;98738.22;;;6.72;100.00
73105;BME280;61296;50.526;30.792;2023-04-27T01:33:20;98791.69;;;6.73;100.00
73105;BME280;61296;50.526;30.792;2023-04-27T01:48:40;98796.47;;;6.53;100.00
73105;BME280;61296;50.526;30.792;2023-04-27T02:04:00;98698.91;;;5.58;100.00
73105;BME280;61296;50.526;30.792;2023-04-27T02:19:20;98697.78;;;5.40;100.00
73105;BME280;61296;50.526;30.792;2023-04-27T02:34:41;98805.19;;;5.93;100.00
73105;BME280;61296;50.526;30.792;2023-04-27T02:50:00;98812.16;;;5.91;100.00
73105;BME280;61296;50.526;30.792;2023-04-27T03:05:21;98818.59;;;5.83;100.00
73105;BME280;61296;50.526;30.792;2023-04-27T03:36:31;98891.72;;;5.93;100.00
73105;BME280;61296;50.526;30.792;2023-04-27T03:51:50;98785.72;;;5.17;100.00
73105;BME280;61296;50.526;30.792;2023-04-27T04:07:13;98913.28;;;5.98;100.00
73105;BME280;61296;50.526;30.792;2023-04-27T04:22:39;98843.44;;;5.58;100.00
73105;BME280;61296;50.526;30.792;2023-04-27T04:38:05;98774.03;;;4.98;100.00
73105;BME280;61296;50.526;30.792;2023-04-27T04:53:55;98914.88;;;5.83;100.00
73105;BME280;61296;50.526;30.792;2023-04-27T05:09:22;98800.22;;;5.02;100.00
73105;BME280;61296;50.526;30.792;2023-04-27T05:24:41;98868.75;;;5.39;100.00
73105;BME280;61296;50.526;30.792;2023-04-27T05:40:01;98885.78;;;5.52;100.00
73105;BME280;61296;50.526;30.792;2023-04-27T05:55:21;98909.28;;;5.57;100.00
73105;BME280;61296;50.526;30.792;2023-04-27T06:10:40;98800.34;;;4.74;100.00
73105;BME280;61296;50.526;30.792;2023-04-27T06:26:00;98869.63;;;5.08;100.00
73105;BME280;61296;50.526;30.792;2023-04-27T06:41:25;98973.91;;;5.72;100.00
73105;BME280;61296;50.526;30.792;2023-04-27T06:56:44;98997.22;;;5.85;100.00
73105;BME280;61296;50.526;30.792;2023-04-27T07:12:07;98939.00;;;5.62;100.00
73105;BME280;61296;50.526;30.792;2023-04-27T07:27:26;98908.25;;;5.45;100.00
73105;BME280;61296;50.526;30.792;2023-04-27T07:42:46;98860.97;;;5.03;100.00
73105;BME280;61296;50.526;30.792;2023-04-27T07:58:08;98934.38;;;5.46;100.00
73105;BME280;61296;50.526;30.792;2023-04-27T08:13:28;99036.53;;;6.00;100.00
73105;BME280;61296;50.526;30.792;2023-04-27T08:28:50;99063.41;;;5.98;100.00
73105;BME280;61296;50.526;30.792;2023-04-27T08:44:09;99058.31;;;5.96;100.00
73105;BME280;61296;50.526;30.792;2023-04-27T08:59:28;99031.78;;;5.97;100.00
73105;BME280;61296;50.526;30.792;2023-04-27T09:15:01;99039.66;;;6.18;100.00
73105;BME280;61296;50.526;30.792;2023-04-27T09:30:25;99047.47;;;6.19;100.00
73105;BME280;61296;50.526;30.792;2023-04-27T09:45:48;98892.16;;;5.40;100.00
73105;BME280;61296;50.526;30.792;2023-04-27T10:16:56;99002.81;;;6.27;100.00
73105;BME280;61296;50.526;30.792;2023-04-27T10:32:22;98989.69;;;5.98;100.00
73105;BME280;61296;50.526;30.792;2023-04-27T10:47:49;99076.56;;;6.47;100.00
73105;BME280;61296;50.526;30.792;2023-04-27T11:03:17;99042.84;;;6.04;100.00
73105;BME280;61296;50.526;30.792;2023-04-27T11:18:37;98967.53;;;5.48;100.00
73105;BME280;61296;50.526;30.792;2023-04-27T11:33:57;99117.50;;;6.27;100.00
73105;BME280;61296;50.526;30.792;2023-04-27T11:49:16;99024.41;;;5.82;100.00
73105;BME280;61296;50.526;30.792;2023-04-27T12:04:36;98995.94;;;5.63;100.00
73105;BME280;61296;50.526;30.792;2023-04-27T12:19:55;98989.78;;;5.50;100.00
73105;BME280;61296;50.526;30.792;2023-04-27T12:35:14;99008.88;;;5.66;100.00
73105;BME280;61296;50.526;30.792;2023-04-27T12:50:36;98999.03;;;5.46;100.00
73105;BME280;61296;50.526;30.792;2023-04-27T13:05:55;99126.28;;;6.36;100.00
73105;BME280;61296;50.526;30.792;2023-04-27T13:21:15;99040.94;;;5.73;100.00
73105;BME280;61296;50.526;30.792;2023-04-27T13:36:35;98993.78;;;5.37;100.00
73105;BME280;61296;50.526;30.792;2023-04-27T13:51:54;99093.00;;;5.96;100.00
73105;BME280;61296;50.526;30.792;2023-04-27T14:07:14;99053.78;;;5.88;100.00
73105;BME280;61296;50.526;30.792;2023-04-27T14:22:34;99019.59;;;5.59;100.00
73105;BME280;61296;50.526;30.792;2023-04-27T14:38:07;99142.84;;;6.28;100.00
73105;BME280;61296;50.526;30.792;2023-04-27T14:53:35;99054.69;;;5.76;100.00
73105;BME280;61296;50.526;30.792;2023-04-27T15:08:59;99133.72;;;6.20;100.00
73105;BME280;61296;50.526;30.792;2023-04-27T15:24:23;99156.31;;;6.36;100.00
73105;BME280;61296;50.526;30.792;2023-04-27T15:39:42;99115.69;;;6.00;99.17
73105;BME280;61296;50.526;30.792;2023-04-27T15:55:02;99190.69;;;6.22;99.00
73105;BME280;61296;50.526;30.792;2023-04-27T16:10:24;99120.91;;;5.73;97.63
73105;BME280;61296;50.526;30.792;2023-04-27T16:25:44;99246.03;;;6.70;95.68
73105;BME280;61296;50.526;30.792;2023-04-27T16:41:03;99149.41;;;6.07;95.50
73105;BME280;61296;50.526;30.792;2023-04-27T18:35:17;99251.63;;;6.42;91.47
73105;BME280;61296;50.526;30.792;2023-04-27T18:50:37;99268.34;;;6.56;90.41
73105;BME280;61296;50.526;30.792;2023-04-27T19:05:56;99282.91;;;6.60;89.12
73105;BME280;61296;50.526;30.792;2023-04-27T19:21:16;99180.41;;;5.84;87.07
73105;BME280;61296;50.526;30.792;2023-04-27T19:36:36;99309.44;;;6.59;84.31
73105;BME280;61296;50.526;30.792;2023-04-27T19:51:57;99372.22;;;7.07;83.41
73105;BME280;61296;50.526;30.792;2023-04-27T20:07:17;99331.13;;;6.68;82.48
73105;BME280;61296;50.526;30.792;2023-04-27T20:22:38;99247.16;;;6.18;81.60
73105;BME280;61296;50.526;30.792;2023-04-27T20:37:57;99403.19;;;7.11;81.19
73105;BME280;61296;50.526;30.792;2023-04-27T20:53:16;99335.44;;;6.69;80.84
73105;BME280;61296;50.526;30.792;2023-04-27T21:08:36;99370.28;;;7.07;80.22
73105;BME280;61296;50.526;30.792;2023-04-27T21:24:34;99410.50;;;7.22;81.34
73105;BME280;61296;50.526;30.792;2023-04-27T21:39:53;99261.44;;;6.27;81.95
73105;BME280;61296;50.526;30.792;2023-04-27T21:55:12;99287.31;;;6.49;83.58
73105;BME280;61296;50.526;30.792;2023-04-27T22:10:31;99378.16;;;6.93;85.67
73105;BME280;61296;50.526;30.792;2023-04-27T22:25:51;99356.03;;;6.82;85.80
73105;BME280;61296;50.526;30.792;2023-04-27T22:41:10;99289.94;;;6.45;85.25
73105;BME280;61296;50.526;30.792;2023-04-27T22:56:30;99297.88;;;6.34;84.17
73105;BME280;61296;50.526;30.792;2023-04-27T23:11:49;99281.22;;;6.24;83.94
73105;BME280;61296;50.526;30.792;2023-04-27T23:27:09;99199.03;;;5.82;83.79
73105;BME280;61296;50.526;30.792;2023-04-27T23:42:28;99221.53;;;5.91;83.28
73105;BME280;61296;50.526;30.792;2023-04-27T23:57:49;99280.63;;;6.30;81.88
